Time;durP1;ratioP1;P1;durP2;ratioP2;P2;SDS_P1;SDS_P2;PMS_P1;PMS_P2;Temp;Humidity;BMP_temperature;BMP_pressure;BME280_temperature;BME280_humidity;BME280_pressure;Samples;Min_cycle;Max_cycle;Signal;HPM_P1;HPM_P2
2022/09/10 00:04:51;;;;;;;3.58;1.80;;;;;;;15.89;88.36;99847.31;10295742;28;20239;-73
2022/09/10 00:09:53;;;;;;;2.92;1.52;;;;;;;15.89;88.82;99851.84;10284204;28;20077;-72
2022/09/10 00:14:55;;;;;;;3.85;2.00;;;;;;;16.01;87.86;99839.78;10296068;28;20046;-73
2022/09/10 00:19:58;;;;;;;2.42;1.95;;;;;;;16.08;87.14;99845.31;10293196;28;20053;-70
2022/09/10 00:24:59;;;;;;;4.03;1.90;;;;;;;15.99;87.74;99838.25;10294708;28;20050;-74
2022/09/10 00:30:05;;;;;;;4.90;1.95;;;;;;;16.03;86.96;99842.28;10294122;28;20107;-74
2022/09/10 00:35:06;;;;;;;5.57;2.03;;;;;;;16.04;87.17;99836.75;10294959;28;20054;-72
2022/09/10 00:40:10;;;;;;;3.30;1.40;;;;;;;15.96;87.26;99833.22;10288558;28;20046;-73
2022/09/10 00:45:18;;;;;;;2.60;1.25;;;;;;;15.97;87.44;99843.78;10296726;28;20136;-73
2022/09/10 00:50:22;;;;;;;2.17;1.48;;;;;;;15.90;87.85;99838.28;10296916;28;20703;-74
2022/09/10 00:55:24;;;;;;;4.75;1.35;;;;;;;16.02;87.62;99837.94;10330431;28;20042;-71
2022/09/10 01:00:25;;;;;;;2.47;1.20;;;;;;;16.07;87.34;99833.72;10316735;28;20061;-73
2022/09/10 01:05:28;;;;;;;3.03;1.33;;;;;;;16.08;87.20;99839.94;10301179;28;20452;-72
2022/09/10 01:10:35;;;;;;;2.17;1.17;;;;;;;16.10;87.20;99842.47;10295888;28;20049;-72
2022/09/10 01:15:46;;;;;;;2.13;0.98;;;;;;;16.10;87.79;99840.59;10293519;28;20050;-72
2022/09/10 01:21:09;;;;;;;2.55;1.45;;;;;;;16.08;88.23;99846.16;10294015;28;20046;-73
2022/09/10 01:26:30;;;;;;;2.20;1.10;;;;;;;16.16;87.61;99842.59;10298705;28;20062;-71
2022/09/10 01:31:47;;;;;;;3.13;1.17;;;;;;;16.24;87.53;99844.44;10293916;28;20052;-75
2022/09/10 01:36:52;;;;;;;2.55;1.08;;;;;;;16.10;88.38;99845.97;10291901;28;20105;-73
2022/09/10 01:41:54;;;;;;;1.90;1.20;;;;;;;16.11;88.75;99844.97;10290781;28;20555;-72
2022/09/10 01:47:11;;;;;;;3.25;1.80;;;;;;;15.96;89.95;99834.09;10292294;28;20148;-72
2022/09/10 01:52:41;;;;;;;2.35;1.60;;;;;;;15.98;90.64;99844.66;10290025;28;20062;-73
2022/09/10 01:57:57;;;;;;;3.08;1.83;;;;;;;15.97;91.24;99837.59;10304972;28;20049;-73
2022/09/10 02:03:10;;;;;;;4.07;1.90;;;;;;;16.08;91.12;99839.94;10290650;28;20049;-72
2022/09/10 02:08:17;;;;;;;3.38;2.13;;;;;;;16.10;90.23;99824.50;10291867;28;20058;-71
2022/09/10 02:13:19;;;;;;;3.83;2.28;;;;;;;16.02;91.07;99816.47;10292162;28;20073;-72
2022/09/10 02:18:22;;;;;;;2.33;1.95;;;;;;;15.89;92.71;99816.97;10292479;28;20057;-73
2022/09/10 02:23:30;;;;;;;2.72;1.77;;;;;;;15.86;92.93;99818.13;10287960;28;20050;-72
2022/09/10 02:28:31;;;;;;;3.15;1.30;;;;;;;15.90;92.58;99822.16;10289870;28;20732;-72
2022/09/10 02:33:33;;;;;;;2.90;1.40;;;;;;;15.99;91.93;99808.72;10282754;28;21623;-74
2022/09/10 02:38:34;;;;;;;1.65;1.33;;;;;;;16.03;91.09;99810.94;10290625;28;20054;-74
2022/09/10 02:43:36;;;;;;;2.95;1.50;;;;;;;15.97;91.64;99826.84;10288972;28;20084;-72
2022/09/10 02:48:38;;;;;;;3.60;1.13;;;;;;;15.87;91.58;99811.78;10291388;28;20089;-71
2022/09/10 02:53:40;;;;;;;2.30;1.30;;;;;;;15.88;91.42;99813.47;10292103;28;20054;-72
2022/09/10 02:58:42;;;;;;;4.05;1.20;;;;;;;15.83;91.55;99805.06;10290140;28;20088;-74
2022/09/10 03:03:48;;;;;;;4.78;1.38;;;;;;;15.99;90.03;99803.34;10289451;28;20051;-74
2022/09/10 03:08:50;;;;;;;1.75;1.00;;;;;;;16.00;89.01;99805.03;10289766;28;20047;-72
2022/09/10 03:13:52;;;;;;;1.70;0.98;;;;;;;15.97;88.37;99810.75;10290290;28;20065;-73
2022/09/10 03:18:53;;;;;;;2.22;1.17;;;;;;;15.79;89.55;99803.72;10289600;28;20046;-73
2022/09/10 03:23:55;;;;;;;4.18;0.98;;;;;;;15.82;90.08;99819.50;10290403;28;20054;-72
2022/09/10 03:28:57;;;;;;;2.65;0.77;;;;;;;15.78;90.33;99811.94;10287748;28;20050;-73
2022/09/10 03:33:58;;;;;;;4.18;1.23;;;;;;;15.84;89.67;99808.59;10295201;28;20615;-73
2022/09/10 03:39:00;;;;;;;1.90;1.05;;;;;;;15.82;89.82;99808.78;10297600;28;20054;-74
2022/09/10 03:44:01;;;;;;;3.75;1.40;;;;;;;15.76;89.66;99809.38;10298000;28;20522;-72
2022/09/10 03:49:04;;;;;;;3.15;0.98;;;;;;;15.75;90.59;99807.72;10298002;28;20672;-75
2022/09/10 03:54:05;;;;;;;3.20;1.40;;;;;;;15.80;89.75;99818.81;10297312;28;20047;-73
2022/09/10 03:59:06;;;;;;;4.00;1.25;;;;;;;15.61;91.59;99813.75;10297023;28;20050;-75
2022/09/10 04:04:08;;;;;;;1.95;1.00;;;;;;;15.52;92.11;99820.94;10294143;28;20096;-73
2022/09/10 04:09:09;;;;;;;2.45;0.90;;;;;;;15.60;91.60;99817.44;10298579;28;20097;-75
2022/09/10 04:14:11;;;;;;;1.45;0.90;;;;;;;15.55;91.90;99813.41;10294383;28;20054;-73
2022/09/10 04:19:12;;;;;;;5.28;1.20;;;;;;;15.45;92.20;99812.75;10301855;28;20057;-74
2022/09/10 04:24:14;;;;;;;3.00;1.33;;;;;;;15.45;92.55;99809.22;10327969;28;20500;-73
2022/09/10 04:29:15;;;;;;;1.60;1.35;;;;;;;15.47;92.33;99813.41;10328183;28;20050;-73
2022/09/10 04:34:16;;;;;;;2.78;1.83;;;;;;;15.48;91.64;99809.72;10313878;28;20680;-75
2022/09/10 04:39:18;;;;;;;2.60;1.92;;;;;;;15.50;91.89;99813.06;10302724;28;20050;-73
2022/09/10 04:44:19;;;;;;;5.10;1.95;;;;;;;15.51;91.87;99809.38;10300550;28;20060;-73
2022/09/10 04:49:20;;;;;;;3.53;2.15;;;;;;;15.59;91.60;99815.78;10296641;28;20396;-74
2022/09/10 04:54:22;;;;;;;3.38;1.60;;;;;;;15.59;91.20;99807.72;10293887;28;20116;-72
2022/09/10 04:59:23;;;;;;;2.88;2.10;;;;;;;15.54;91.93;99821.63;10309355;28;20076;-74
2022/09/10 05:04:24;;;;;;;3.55;1.90;;;;;;;15.42;93.21;99821.13;10296508;28;20053;-72
2022/09/10 05:09:30;;;;;;;4.75;1.92;;;;;;;15.38;94.54;99820.59;10299546;28;20058;-72
2022/09/10 05:14:32;;;;;;;6.13;2.50;;;;;;;15.26;96.18;99805.00;10296831;28;20556;-72
2022/09/10 05:19:33;;;;;;;3.65;2.50;;;;;;;15.33;97.00;99824.78;10295420;28;20066;-74
2022/09/10 05:24:34;;;;;;;3.53;2.35;;;;;;;15.39;96.28;99808.03;10293665;28;20057;-73
2022/09/10 05:29:36;;;;;;;5.18;2.40;;;;;;;15.55;95.56;99824.16;10294257;28;20050;-73
2022/09/10 05:34:38;;;;;;;3.53;1.65;;;;;;;15.56;95.54;99817.75;10280386;28;20050;-74
2022/09/10 05:39:40;;;;;;;4.07;2.08;;;;;;;15.64;94.81;99825.00;10268547;28;20069;-72
2022/09/10 05:44:41;;;;;;;3.25;1.75;;;;;;;15.68;94.79;99833.53;10271649;28;20265;-72
2022/09/10 05:49:45;;;;;;;5.00;2.40;;;;;;;15.63;96.29;99819.81;10299868;28;20049;-73
2022/09/10 05:54:47;;;;;;;4.40;2.80;;;;;;;15.77;97.32;99824.47;10270721;28;20112;-75
2022/09/10 05:59:48;;;;;;;2.65;2.10;;;;;;;15.73;96.79;99824.00;10274454;28;20629;-74
2022/09/10 06:04:49;;;;;;;2.58;2.08;;;;;;;15.69;97.67;99824.50;10272982;28;20438;-76
2022/09/10 06:09:50;;;;;;;3.03;2.05;;;;;;;15.83;97.64;99831.06;10269316;28;20054;-75
2022/09/10 06:14:52;;;;;;;6.13;2.83;;;;;;;15.85;97.73;99829.91;10268513;28;20524;-71
2022/09/10 06:19:53;;;;;;;3.58;2.35;;;;;;;15.72;98.99;99830.34;10265345;28;20054;-78
2022/09/10 06:24:55;;;;;;;2.65;2.25;;;;;;;15.60;100.00;99830.84;10283326;28;20058;-72
2022/09/10 06:29:56;;;;;;;5.82;2.45;;;;;;;15.53;100.00;99836.88;10269964;28;20046;-73
2022/09/10 06:34:57;;;;;;;4.30;2.20;;;;;;;15.56;100.00;99836.53;10270161;28;20533;-74
2022/09/10 06:40:00;;;;;;;3.90;2.17;;;;;;;15.59;100.00;99830.00;10265852;28;20509;-71
2022/09/10 06:45:02;;;;;;;3.97;1.87;;;;;;;15.58;100.00;99848.97;10266026;28;20164;-74
2022/09/10 06:50:04;;;;;;;3.05;2.20;;;;;;;15.66;100.00;99847.13;10262404;28;20053;-73
2022/09/10 06:55:06;;;;;;;2.55;2.35;;;;;;;15.60;100.00;99853.16;10268875;28;20070;-70
2022/09/10 07:00:08;;;;;;;3.15;2.22;;;;;;;15.64;100.00;99848.28;10269089;28;20069;-72
2022/09/10 07:05:09;;;;;;;4.03;1.35;;;;;;;15.66;100.00;99860.53;10268679;28;20050;-72
2022/09/10 07:10:10;;;;;;;1.95;1.67;;;;;;;15.69;100.00;99862.06;10267654;28;20284;-71
2022/09/10 07:15:12;;;;;;;2.30;1.67;;;;;;;15.66;100.00;99860.53;10268568;28;20054;-71
2022/09/10 07:20:13;;;;;;;3.33;1.65;;;;;;;15.68;100.00;99853.16;10270092;28;20785;-72
2022/09/10 07:25:15;;;;;;;2.08;1.92;;;;;;;15.86;100.00;99879.88;10270829;28;20697;-72
2022/09/10 07:30:17;;;;;;;3.78;1.95;;;;;;;15.87;100.00;99865.44;10273657;28;20062;-71
2022/09/10 07:35:18;;;;;;;1.80;1.30;;;;;;;15.79;100.00;99861.91;10277518;28;20054;-71
2022/09/10 07:40:22;;;;;;;2.65;1.17;;;;;;;15.87;100.00;99878.03;10274654;28;20058;-72
2022/09/10 07:45:24;;;;;;;2.20;1.90;;;;;;;15.95;100.00;99882.56;10283503;28;20058;-71
2022/09/10 07:50:27;;;;;;;3.10;2.30;;;;;;;16.01;100.00;99885.41;10308917;28;20610;-72
2022/09/10 07:55:30;;;;;;;2.33;2.10;;;;;;;15.98;100.00;99888.44;10324111;28;20047;-69
2022/09/10 08:00:31;;;;;;;2.17;1.90;;;;;;;15.98;100.00;99891.09;10284200;28;20046;-73
2022/09/10 08:05:35;;;;;;;3.15;2.25;;;;;;;16.13;100.00;99902.03;10274684;28;20062;-72
2022/09/10 08:10:37;;;;;;;2.13;1.73;;;;;;;16.42;99.07;99901.50;10285593;28;20058;-70
2022/09/10 08:15:43;;;;;;;4.18;2.58;;;;;;;16.81;97.98;99904.44;10269837;28;20042;-73
2022/09/10 08:20:44;;;;;;;2.30;2.10;;;;;;;16.60;97.30;99898.63;10278893;28;20589;-72
2022/09/10 08:25:50;;;;;;;3.42;2.10;;;;;;;16.59;96.74;99902.31;10274887;28;20658;-73
2022/09/10 08:31:00;;;;;;;4.53;2.53;;;;;;;16.43;97.11;99887.03;10288077;28;20089;-74
2022/09/10 08:36:03;;;;;;;6.53;2.60;;;;;;;16.58;98.46;99914.06;10273778;28;20046;-73
2022/09/10 08:41:18;;;;;;;3.33;2.28;;;;;;;16.65;96.29;99908.00;10271130;28;20056;-70
2022/09/10 08:46:24;;;;;;;5.25;2.50;;;;;;;16.77;96.92;99912.00;10271588;28;20042;-73
2022/09/10 08:51:28;;;;;;;4.75;2.10;;;;;;;17.03;94.38;99913.63;10287159;28;20061;-72
2022/09/10 08:56:31;;;;;;;4.38;2.15;;;;;;;16.91;94.83;99927.44;10270562;28;20519;-72
2022/09/10 09:01:46;;;;;;;2.63;2.10;;;;;;;16.82;94.51;99922.25;10272509;28;20077;-69
2022/09/10 09:06:52;;;;;;;1.83;1.73;;;;;;;16.71;96.22;99915.34;10273184;28;20054;-72
2022/09/10 09:12:02;;;;;;;6.18;2.20;;;;;;;16.81;95.44;99921.38;10272995;28;20561;-69
2022/09/10 09:17:18;;;;;;;5.43;2.40;;;;;;;16.99;95.93;99920.38;10270833;28;20180;-71
2022/09/10 09:22:28;;;;;;;4.97;2.20;;;;;;;16.92;94.73;99913.00;10269663;28;20065;-73
2022/09/10 09:27:34;;;;;;;6.60;2.45;;;;;;;16.83;96.47;99903.25;10270124;28;20069;-72
2022/09/10 09:32:40;;;;;;;4.15;3.28;;;;;;;16.90;95.42;99912.34;10284954;28;20050;-74
2022/09/10 09:37:47;;;;;;;4.55;2.13;;;;;;;17.07;93.62;99904.19;10268851;28;20991;-74
2022/09/10 09:42:57;;;;;;;4.80;2.58;;;;;;;17.25;93.94;99904.81;10264683;28;20068;-75
2022/09/10 09:47:59;;;;;;;4.57;2.00;;;;;;;18.02;88.50;99898.59;10259129;28;20085;-74
2022/09/10 09:53:00;;;;;;;6.75;2.00;;;;;;;17.99;87.57;99900.84;10271041;28;20091;-76
2022/09/10 09:58:28;;;;;;;3.65;2.03;;;;;;;17.58;83.35;99912.69;10269751;28;20054;-73
2022/09/10 10:03:47;;;;;;;3.53;1.50;;;;;;;17.40;84.63;99906.72;10266065;28;20784;-73
2022/09/10 10:09:19;;;;;;;5.07;1.83;;;;;;;17.37;85.90;99915.16;10268791;28;20061;-75
2022/09/10 10:14:24;;;;;;;7.18;2.38;;;;;;;17.34;85.68;99915.50;10268348;28;20560;-76
2022/09/10 10:19:37;;;;;;;4.85;1.60;;;;;;;17.36;84.57;99911.63;10270227;28;20073;-74
2022/09/10 10:24:41;;;;;;;6.50;2.08;;;;;;;17.31;84.82;99912.16;10273656;28;20123;-73
2022/09/10 10:29:52;;;;;;;3.80;1.50;;;;;;;17.27;84.80;99908.13;10269293;28;20057;-75
2022/09/10 10:35:18;;;;;;;4.75;1.80;;;;;;;17.26;83.11;99909.19;10271159;28;20057;-75
2022/09/10 10:40:33;;;;;;;3.70;1.25;;;;;;;17.28;82.64;99917.06;10273787;28;20056;-75
2022/09/10 10:45:50;;;;;;;7.40;1.60;;;;;;;17.27;82.77;99910.81;10296313;28;20050;-72
2022/09/10 10:50:57;;;;;;;4.93;1.35;;;;;;;17.34;81.38;99916.38;10262814;28;20836;-71
2022/09/10 10:56:28;;;;;;;4.53;1.58;;;;;;;17.55;80.72;99913.06;10267390;28;20057;-74
2022/09/10 11:01:35;;;;;;;2.88;1.40;;;;;;;17.69;80.09;99907.94;10267931;28;20050;-71
2022/09/10 11:06:43;;;;;;;4.88;1.48;;;;;;;17.65;80.59;99910.97;10270438;28;20077;-72
2022/09/10 11:12:00;;;;;;;3.92;1.10;;;;;;;19.39;73.40;99904.75;10270800;28;20090;-75
2022/09/10 11:17:09;;;;;;;2.95;1.50;;;;;;;21.21;65.91;99897.09;10303082;28;23107;-76
2022/09/10 11:22:30;;;;;;;4.38;1.50;;;;;;;21.52;62.45;99900.16;10321790;28;20050;-71
2022/09/10 11:27:37;;;;;;;2.30;1.23;;;;;;;22.49;61.31;99891.72;10282729;28;20066;-72
2022/09/10 11:32:43;;;;;;;3.05;1.20;;;;;;;23.46;56.75;99882.88;10272228;28;20065;-73
2022/09/10 11:37:49;;;;;;;2.17;0.90;;;;;;;24.19;54.57;99876.13;10271302;28;20360;-68
2022/09/10 11:42:57;;;;;;;3.03;0.80;;;;;;;23.19;56.62;99883.00;10265092;28;20050;-75
2022/09/10 11:48:11;;;;;;;2.35;1.02;;;;;;;23.32;56.45;99875.84;10288494;28;20050;-72
2022/09/10 11:53:19;;;;;;;2.47;0.65;;;;;;;26.18;49.63;99856.72;10274486;28;20077;-72
2022/09/10 11:58:38;;;;;;;1.58;0.82;;;;;;;23.17;54.87;99876.97;10273229;28;20050;-71
2022/09/10 12:03:50;;;;;;;3.03;1.13;;;;;;;21.27;61.87;99866.53;10273006;28;20574;-73
2022/09/10 12:09:00;;;;;;;1.83;0.77;;;;;;;20.90;63.07;99858.69;10274162;28;20058;-73
2022/09/10 12:14:15;;;;;;;2.97;0.50;;;;;;;22.57;58.78;99869.81;10276266;28;20152;-73
2022/09/10 12:19:25;;;;;;;3.70;0.60;;;;;;;22.04;57.44;99854.41;10277341;28;20046;-73
2022/09/10 12:24:30;;;;;;;1.15;0.63;;;;;;;21.30;60.37;99864.25;10256641;28;20660;-71
2022/09/10 12:29:39;;;;;;;1.25;0.40;;;;;;;20.38;64.89;99860.81;10274130;28;20057;-70
2022/09/10 12:34:41;;;;;;;3.42;1.10;;;;;;;20.34;66.97;99848.72;10276932;28;20042;-73
2022/09/10 12:39:43;;;;;;;1.65;0.85;;;;;;;24.34;54.11;99845.88;10272351;28;20057;-74
2022/09/10 12:44:45;;;;;;;1.63;0.50;;;;;;;23.13;56.37;99843.13;10267669;28;20287;-77
2022/09/10 12:49:59;;;;;;;2.33;0.50;;;;;;;21.68;60.77;99841.25;10271426;28;20053;-71
2022/09/10 12:55:20;;;;;;;2.42;0.60;;;;;;;21.22;60.38;99845.47;10272289;28;20099;-72
2022/09/10 13:00:24;;;;;;;1.05;0.40;;;;;;;21.09;61.55;99840.88;10271043;28;20809;-72
2022/09/10 13:05:44;;;;;;;0.40;0.20;;;;;;;20.65;61.63;99850.19;10269524;28;20434;-72
2022/09/10 13:11:12;;;;;;;0.70;0.25;;;;;;;20.31;62.60;99844.56;10269331;28;20050;-71
2022/09/10 13:16:33;;;;;;;0.50;0.30;;;;;;;20.39;63.32;99829.25;10270260;28;20311;-72
2022/09/10 13:21:35;;;;;;;1.55;0.40;;;;;;;20.72;61.40;99842.16;10270538;28;20422;-73
2022/09/10 13:26:48;;;;;;;0.68;0.28;;;;;;;20.94;60.73;99837.47;10271397;28;20097;-76
2022/09/10 13:32:15;;;;;;;0.57;0.38;;;;;;;21.25;60.15;99838.84;10271156;28;20046;-74
2022/09/10 13:37:42;;;;;;;0.57;0.30;;;;;;;20.94;57.57;99827.50;10244287;28;20053;-73
2022/09/10 13:43:01;;;;;;;0.65;0.20;;;;;;;21.34;56.82;99826.78;10269984;28;20058;-73
2022/09/10 13:48:13;;;;;;;2.50;0.20;;;;;;;21.96;55.24;99811.22;10275501;28;20628;-71
2022/09/10 13:53:17;;;;;;;0.70;0.20;;;;;;;22.27;55.55;99806.22;10265648;28;20156;-74
2022/09/10 13:58:27;;;;;;;0.40;0.30;;;;;;;22.02;55.45;99796.88;10274166;28;20057;-73
2022/09/10 14:03:37;;;;;;;1.55;0.47;;;;;;;21.95;55.96;99797.91;10274827;28;20436;-75
2022/09/10 14:08:48;;;;;;;1.85;0.20;;;;;;;21.63;56.34;99793.13;10271711;28;20572;-73
2022/09/10 14:13:54;;;;;;;2.67;0.45;;;;;;;21.42;57.19;99782.44;10277577;28;20109;-71
2022/09/10 14:19:00;;;;;;;0.63;0.20;;;;;;;21.36;57.29;99786.78;10275778;28;20983;-72
2022/09/10 14:24:02;;;;;;;0.20;0.20;;;;;;;21.21;58.72;99799.66;10265140;28;20500;-73
2022/09/10 14:29:25;;;;;;;0.88;0.30;;;;;;;21.13;58.20;99793.41;10268421;28;20057;-70
2022/09/10 14:34:32;;;;;;;0.60;0.32;;;;;;;20.81;59.09;99798.50;10268674;28;20046;-71
2022/09/10 14:39:33;;;;;;;1.30;0.43;;;;;;;20.39;60.29;99792.22;10270692;28;20053;-70
2022/09/10 14:44:40;;;;;;;0.55;0.20;;;;;;;20.40;60.85;99793.91;10335083;28;20106;-72
2022/09/10 14:49:45;;;;;;;1.15;0.20;;;;;;;20.28;60.89;99779.25;10310747;28;20709;-71
2022/09/10 14:54:47;;;;;;;0.70;0.20;;;;;;;20.22;61.10;99780.06;10279581;28;20050;-70
2022/09/10 14:59:48;;;;;;;0.63;0.10;;;;;;;20.06;61.18;99776.63;10274676;28;20538;-68
2022/09/10 15:04:53;;;;;;;3.60;0.40;;;;;;;19.99;61.33;99785.72;10271223;28;20054;-71
2022/09/10 15:09:54;;;;;;;3.13;0.50;;;;;;;18.87;74.78;99806.78;10269966;28;20050;-74
2022/09/10 15:14:56;;;;;;;2.88;0.70;;;;;;;18.60;81.28;99829.84;10269646;28;20061;-72
2022/09/10 15:19:58;;;;;;;3.08;0.68;;;;;;;18.52;83.98;99852.34;10266558;28;20050;-71
2022/09/10 15:24:59;;;;;;;4.10;1.40;;;;;;;18.59;87.22;99844.38;10280939;28;20110;-72
2022/09/10 15:30:15;;;;;;;4.97;1.35;;;;;;;18.60;81.58;99849.56;10275786;28;20273;-72
2022/09/10 15:35:17;;;;;;;4.22;1.60;;;;;;;18.60;85.76;99844.19;10278142;28;20081;-71
2022/09/10 15:40:18;;;;;;;3.22;0.95;;;;;;;18.63;83.62;99857.28;10275640;28;20149;-72
2022/09/10 15:45:20;;;;;;;3.53;1.40;;;;;;;18.54;86.96;99855.72;10274384;28;20054;-72
2022/09/10 15:50:21;;;;;;;2.38;0.90;;;;;;;18.72;85.49;99842.69;10274929;28;20706;-68
2022/09/10 15:55:23;;;;;;;2.25;1.20;;;;;;;19.03;83.89;99841.66;10283951;28;20058;-74
2022/09/10 16:00:25;;;;;;;3.53;1.30;;;;;;;19.15;81.72;99854.66;10278119;28;20057;-71
2022/09/10 16:05:27;;;;;;;1.20;0.70;;;;;;;19.08;80.72;99838.41;10277833;28;20082;-71
2022/09/10 16:10:28;;;;;;;3.00;0.90;;;;;;;18.97;82.50;99842.41;10270915;28;20070;-71
2022/09/10 16:15:30;;;;;;;1.20;0.68;;;;;;;18.76;78.29;99839.63;10272699;28;20476;-73
2022/09/10 16:20:32;;;;;;;2.63;0.80;;;;;;;18.66;80.46;99835.34;10273856;28;20065;-73
2022/09/10 16:25:33;;;;;;;2.03;1.17;;;;;;;18.57;83.31;99847.25;10275706;28;20061;-70
2022/09/10 16:30:34;;;;;;;2.50;1.80;;;;;;;18.45;83.25;99846.00;10276493;28;20054;-71
2022/09/10 16:35:36;;;;;;;3.30;1.80;;;;;;;18.13;85.15;99840.78;10271367;28;20061;-73
2022/09/10 16:40:37;;;;;;;2.88;1.90;;;;;;;18.15;86.11;99860.28;10276997;28;20061;-72
2022/09/10 16:45:48;;;;;;;2.28;1.40;;;;;;;18.05;86.00;99869.66;10277006;28;20050;-73
2022/09/10 16:50:49;;;;;;;2.92;2.00;;;;;;;18.21;91.35;99880.28;10273937;28;20191;-73
2022/09/10 16:55:51;;;;;;;2.85;2.00;;;;;;;18.13;86.33;99883.88;10275411;28;20053;-71
2022/09/10 17:00:52;;;;;;;3.72;3.20;;;;;;;18.03;88.12;99888.69;10272521;28;20102;-71
2022/09/10 17:05:55;;;;;;;4.28;2.67;;;;;;;17.89;88.38;99892.13;10273990;28;20069;-72
2022/09/10 17:10:57;;;;;;;3.57;2.00;;;;;;;17.86;89.13;99890.63;10270796;28;20802;-73
2022/09/10 17:16:31;;;;;;;2.95;2.30;;;;;;;17.93;90.44;99882.72;10275367;28;20055;-71
2022/09/10 17:21:36;;;;;;;;;;;;;;;17.94;89.89;99876.28;10266317;28;20057;-73
2022/09/10 17:26:39;;;;;;;3.10;2.42;;;;;;;17.93;89.53;99883.53;10271473;28;19936;-76
2022/09/10 17:31:41;;;;;;;3.53;2.97;;;;;;;17.89;90.85;99879.53;10275438;28;20108;-74
2022/09/10 17:36:44;;;;;;;3.15;2.30;;;;;;;17.81;92.22;99874.19;10271084;28;20058;-74
2022/09/10 17:41:47;;;;;;;4.63;3.03;;;;;;;17.87;93.48;99878.84;10272584;28;20299;-73
2022/09/10 17:46:48;;;;;;;4.65;3.00;;;;;;;17.83;94.10;99867.59;10271628;28;20077;-74
2022/09/10 17:51:50;;;;;;;3.80;2.42;;;;;;;17.77;95.35;99880.94;10268958;28;20042;-73
2022/09/10 17:56:51;;;;;;;3.78;2.47;;;;;;;17.72;96.67;99872.56;10268910;28;20759;-73
2022/09/10 18:01:53;;;;;;;3.03;2.50;;;;;;;17.73;96.31;99876.91;10294519;28;20085;-72
2022/09/10 18:06:54;;;;;;;2.08;1.60;;;;;;;17.71;95.93;99874.41;10300706;28;20130;-73
2022/09/10 18:11:56;;;;;;;4.88;1.80;;;;;;;17.73;96.65;99877.78;10299796;28;20056;-73
2022/09/10 18:16:57;;;;;;;4.82;2.22;;;;;;;17.60;95.08;99872.16;10300574;28;20065;-72
2022/09/10 18:22:00;;;;;;;3.30;2.05;;;;;;;17.55;96.23;99870.00;10288050;28;20592;-74
2022/09/10 18:27:03;;;;;;;3.30;2.13;;;;;;;17.45;95.33;99886.34;10279901;28;21134;-74
2022/09/10 18:32:07;;;;;;;2.53;1.77;;;;;;;17.41;97.70;99879.66;10271702;28;20049;-73
2022/09/10 18:37:08;;;;;;;3.28;2.35;;;;;;;17.42;96.72;99886.72;10292750;28;20506;-74
2022/09/10 18:42:10;;;;;;;3.55;2.30;;;;;;;17.39;97.60;99897.00;10298659;28;20215;-73
2022/09/10 18:47:11;;;;;;;3.78;2.45;;;;;;;17.27;98.18;99904.63;10295858;28;20054;-73
2022/09/10 18:52:34;;;;;;;4.32;2.97;;;;;;;17.21;98.75;99905.34;10291097;28;20124;-71
2022/09/10 18:57:35;;;;;;;3.33;2.60;;;;;;;17.16;98.39;99908.53;10279947;28;21351;-72
2022/09/10 19:02:38;;;;;;;39.20;14.82;;;;;;;17.19;99.05;99902.81;10269232;28;20085;-70
2022/09/10 19:07:40;;;;;;;16.83;7.35;;;;;;;17.33;97.96;99903.91;10268207;28;20053;-72
2022/09/10 19:12:41;;;;;;;3.58;3.13;;;;;;;17.25;96.77;99912.88;10270975;28;20058;-74
2022/09/10 19:17:43;;;;;;;5.60;3.78;;;;;;;17.16;97.48;99911.25;10268372;28;20053;-72
2022/09/10 19:22:44;;;;;;;4.75;3.03;;;;;;;17.14;97.70;99911.41;10267714;28;20054;-72
2022/09/10 19:27:46;;;;;;;4.50;2.78;;;;;;;17.10;97.23;99906.56;10271332;28;20060;-75
2022/09/10 19:32:47;;;;;;;5.88;4.05;;;;;;;17.01;98.36;99918.34;10272108;28;20057;-73
2022/09/10 19:37:49;;;;;;;3.35;3.05;;;;;;;16.96;97.71;99918.84;10255441;28;20070;-72
2022/09/10 19:42:50;;;;;;;5.18;2.80;;;;;;;16.95;97.12;99918.03;10265409;28;20077;-72
2022/09/10 19:47:52;;;;;;;3.22;2.92;;;;;;;16.91;96.74;99926.63;10266531;28;20210;-72
2022/09/10 19:52:54;;;;;;;4.97;2.72;;;;;;;16.92;96.25;99934.50;10259212;28;20050;-73
2022/09/10 19:57:58;;;;;;;3.85;2.13;;;;;;;16.89;94.00;99934.84;10270860;28;20050;-71
2022/09/10 20:03:00;;;;;;;2.97;1.70;;;;;;;16.82;93.06;99928.44;10276809;28;20047;-73
2022/09/10 20:08:02;;;;;;;2.78;1.02;;;;;;;16.92;91.86;99941.75;10269636;28;20076;-74
2022/09/10 20:13:04;;;;;;;2.00;1.55;;;;;;;16.87;91.63;99955.66;10268539;28;20319;-71
2022/09/10 20:18:05;;;;;;;1.63;1.35;;;;;;;16.93;92.54;99944.25;10276329;28;20852;-73
2022/09/10 20:23:07;;;;;;;4.28;1.80;;;;;;;17.00;90.75;99947.09;10272731;28;20050;-72
2022/09/10 20:28:09;;;;;;;1.85;1.30;;;;;;;16.93;89.12;99946.09;10274190;28;20058;-73
2022/09/10 20:33:10;;;;;;;3.05;1.15;;;;;;;16.82;89.93;99943.75;10273251;28;20071;-72
2022/09/10 20:38:11;;;;;;;2.90;1.48;;;;;;;16.77;89.87;99946.94;10274557;28;20047;-74
2022/09/10 20:43:12;;;;;;;3.65;1.27;;;;;;;16.85;90.81;99954.97;10274308;28;20692;-74
2022/09/10 20:48:14;;;;;;;3.38;1.88;;;;;;;16.98;90.63;99959.00;10274923;28;20060;-74
2022/09/10 20:53:15;;;;;;;1.65;1.20;;;;;;;16.94;91.46;99970.09;10271103;28;20054;-73
2022/09/10 20:58:17;;;;;;;2.45;1.70;;;;;;;16.81;94.13;99955.50;10274801;28;20070;-73
2022/09/10 21:03:20;;;;;;;4.88;1.92;;;;;;;16.82;94.70;99959.88;10273977;28;20054;-71
2022/09/10 21:08:22;;;;;;;3.00;2.25;;;;;;;16.84;96.17;99963.22;10267607;28;21004;-73
2022/09/10 21:13:26;;;;;;;3.47;2.35;;;;;;;16.67;97.21;99952.50;10282537;28;20057;-73
2022/09/10 21:18:28;;;;;;;3.83;2.30;;;;;;;16.73;100.00;99956.38;10272565;28;20753;-75
2022/09/10 21:23:29;;;;;;;3.03;2.72;;;;;;;16.65;100.00;99950.97;10271898;28;20604;-74
2022/09/10 21:28:30;;;;;;;3.17;2.75;;;;;;;16.73;100.00;99945.59;10245999;28;20061;-75
2022/09/10 21:33:33;;;;;;;3.30;2.95;;;;;;;16.76;100.00;99950.63;10284512;28;20528;-74
2022/09/10 21:38:35;;;;;;;4.00;3.03;;;;;;;16.82;100.00;99954.50;10282439;28;20241;-76
2022/09/10 21:43:42;;;;;;;3.80;3.42;;;;;;;16.72;100.00;99954.66;10280703;28;20053;-74
2022/09/10 21:48:44;;;;;;;4.47;2.80;;;;;;;16.79;100.00;99961.03;10294998;28;20050;-73
2022/09/10 21:53:46;;;;;;;3.72;3.10;;;;;;;16.73;100.00;99962.56;10289629;28;20054;-74
2022/09/10 21:58:47;;;;;;;4.70;2.78;;;;;;;16.71;100.00;99953.84;10293118;28;20046;-75
2022/09/10 22:03:51;;;;;;;4.30;2.78;;;;;;;16.68;100.00;99966.75;10292237;28;20046;-75
2022/09/10 22:08:58;;;;;;;4.18;2.90;;;;;;;16.53;100.00;99962.09;10293332;28;20504;-74
2022/09/10 22:14:02;;;;;;;5.35;3.20;;;;;;;16.57;100.00;99970.66;10289787;28;20052;-75
2022/09/10 22:19:10;;;;;;;3.10;2.80;;;;;;;16.50;100.00;99978.56;10291897;28;20054;-72
2022/09/10 22:24:25;;;;;;;3.53;3.10;;;;;;;16.47;100.00;99973.53;10271165;28;20422;-74
2022/09/10 22:29:28;;;;;;;4.30;2.95;;;;;;;16.28;100.00;99969.31;10288065;28;20077;-76
2022/09/10 22:34:29;;;;;;;5.72;3.50;;;;;;;16.32;100.00;99981.41;10290832;28;20054;-73
2022/09/10 22:39:30;;;;;;;3.88;3.42;;;;;;;16.34;100.00;99978.56;10291071;28;20142;-73
2022/09/10 22:44:32;;;;;;;3.55;3.20;;;;;;;16.41;100.00;99980.41;10290853;28;20664;-74
2022/09/10 22:49:36;;;;;;;3.50;3.13;;;;;;;16.39;100.00;99984.25;10286981;28;20054;-75
2022/09/10 22:54:38;;;;;;;5.32;2.85;;;;;;;16.40;100.00;99988.63;10302230;28;20050;-75
2022/09/10 22:59:39;;;;;;;3.10;2.90;;;;;;;16.46;100.00;99998.69;10289309;28;20059;-74
2022/09/10 23:04:41;;;;;;;4.20;3.42;;;;;;;16.44;100.00;99990.81;10289993;28;20057;-73
2022/09/10 23:09:43;;;;;;;6.72;3.40;;;;;;;16.51;100.00;100007.09;10287566;28;20055;-74
2022/09/10 23:14:44;;;;;;;4.72;3.75;;;;;;;16.49;100.00;100005.59;10289410;28;20047;-73
2022/09/10 23:19:45;;;;;;;3.40;3.10;;;;;;;16.53;100.00;100015.84;10288309;28;20050;-75
2022/09/10 23:24:47;;;;;;;3.58;3.13;;;;;;;16.60;100.00;100008.78;10289331;28;20123;-73
2022/09/10 23:29:48;;;;;;;3.92;3.53;;;;;;;16.71;100.00;100026.41;10288864;28;20532;-73
2022/09/10 23:34:50;;;;;;;5.82;3.92;;;;;;;16.64;100.00;100021.88;10288247;28;20050;-74
2022/09/10 23:39:51;;;;;;;4.40;3.92;;;;;;;16.71;100.00;100017.47;10288824;28;20359;-73